createdAt,value
2022-12-09T00:04:00.521Z,19.3
2022-12-09T00:09:06.332Z,19.3
2022-12-09T00:14:12.213Z,19.3
2022-12-09T00:19:18.327Z,19.3
2022-12-09T00:24:24.446Z,19.3
2022-12-09T00:29:30.376Z,19.3
2022-12-09T00:34:36.766Z,19.3
2022-12-09T00:39:42.499Z,19.3
2022-12-09T00:44:48.742Z,19.3
2022-12-09T00:49:54.690Z,19.2
2022-12-09T00:55:01.052Z,19.2
2022-12-09T01:00:07.157Z,19.1
2022-12-09T01:05:12.871Z,19.1
2022-12-09T01:10:18.872Z,19.1
2022-12-09T01:15:24.964Z,19.1
2022-12-09T01:20:31.034Z,19.1
2022-12-09T01:25:37.018Z,19.1
2022-12-09T01:30:43.100Z,19.1
2022-12-09T01:35:49.157Z,19.1
2022-12-09T01:40:55.234Z,19.1
2022-12-09T01:46:01.626Z,19.1
2022-12-09T01:51:07.694Z,19.2
2022-12-09T01:56:13.362Z,19.2
2022-12-09T02:01:19.957Z,19.2
2022-12-09T02:06:25.777Z,19.2
2022-12-09T02:11:33.418Z,19.2
2022-12-09T02:16:39.582Z,19.2
2022-12-09T02:21:45.793Z,19.2
2022-12-09T02:26:51.789Z,19.2
2022-12-09T02:31:58.020Z,19.2
2022-12-09T02:37:03.759Z,19.2
2022-12-09T02:42:09.987Z,19.2
2022-12-09T02:47:15.989Z,19.2
2022-12-09T02:52:21.976Z,19.1
2022-12-09T02:57:28.197Z,19.1
2022-12-09T03:02:34.435Z,19
2022-12-09T03:07:40.195Z,19
2022-12-09T03:12:46.178Z,19
2022-12-09T03:17:54.158Z,19
2022-12-09T03:23:00.335Z,19
2022-12-09T03:28:06.241Z,19
2022-12-09T03:33:12.290Z,19
2022-12-09T03:38:18.501Z,19
2022-12-09T03:43:24.551Z,19
2022-12-09T03:48:30.496Z,19
2022-12-09T03:53:36.785Z,19.1
2022-12-09T03:58:42.870Z,19.1
2022-12-09T04:03:48.775Z,19.1
2022-12-09T04:09:00.746Z,19.1
2022-12-09T04:14:01.039Z,19
2022-12-09T04:19:07.102Z,19
2022-12-09T04:24:13.020Z,19
2022-12-09T04:29:18.979Z,18.9
2022-12-09T04:34:25.253Z,18.9
2022-12-09T04:39:33.017Z,18.9
2022-12-09T04:44:39.286Z,18.9
2022-12-09T04:49:44.988Z,18.9
2022-12-09T04:54:51.276Z,18.9
2022-12-09T04:59:57.419Z,18.9
2022-12-09T05:05:03.362Z,18.8
2022-12-09T05:10:09.906Z,18.8
2022-12-09T05:15:15.644Z,18.8
2022-12-09T05:20:21.512Z,18.8
2022-12-09T05:25:27.625Z,18.8
2022-12-09T05:30:33.621Z,18.8
2022-12-09T05:35:49.200Z,18.9
2022-12-09T05:40:46.015Z,18.9
2022-12-09T05:45:51.813Z,18.9
2022-12-09T05:50:57.759Z,19
2022-12-09T05:56:04.065Z,19
2022-12-09T06:01:11.982Z,19
2022-12-09T06:06:18.006Z,19.1
2022-12-09T06:11:24.186Z,19.1
2022-12-09T06:16:30.083Z,19.2
2022-12-09T06:21:38.139Z,19.2
2022-12-09T06:26:44.339Z,19.2
2022-12-09T06:31:50.392Z,19.3
2022-12-09T06:36:56.072Z,19.3
2022-12-09T06:42:02.479Z,19.3
2022-12-09T06:47:08.419Z,19.3
2022-12-09T06:52:14.229Z,19.4
2022-12-09T06:57:20.658Z,19.4
2022-12-09T07:02:29.269Z,19.4
2022-12-09T07:07:32.443Z,19.4
2022-12-09T07:12:38.448Z,19.4
2022-12-09T07:17:44.688Z,19.5
2022-12-09T07:22:50.864Z,19.5
2022-12-09T07:27:57.028Z,19.5
2022-12-09T07:33:03.154Z,19.5
2022-12-09T07:38:08.728Z,19.5
2022-12-09T07:43:15.025Z,19.5
2022-12-09T07:48:20.994Z,19.5
2022-12-09T07:53:27.156Z,19.5
2022-12-09T07:58:33.066Z,19.5
2022-12-09T08:03:39.441Z,19.5
2022-12-09T08:08:45.523Z,19.5
2022-12-09T08:13:51.202Z,19.5
2022-12-09T08:18:57.380Z,19.5
2022-12-09T08:24:03.412Z,19.5
2022-12-09T08:29:11.402Z,19.5
2022-12-09T08:34:17.660Z,19.5
2022-12-09T08:39:23.317Z,19.5
2022-12-09T08:44:29.832Z,19.5
2022-12-09T08:49:35.630Z,19.5
2022-12-09T08:54:41.886Z,19.5
2022-12-09T08:59:47.989Z,19.6
2022-12-09T09:04:53.902Z,19.6
2022-12-09T09:09:59.784Z,19.6
2022-12-09T09:15:06.268Z,19.6
2022-12-09T09:20:12.399Z,19.6
2022-12-09T09:25:17.812Z,19.6
2022-12-09T09:30:24.459Z,19.6
2022-12-09T09:35:30.463Z,19.6
2022-12-09T09:40:36.119Z,19.6
2022-12-09T09:45:42.537Z,19.6
2022-12-09T09:50:48.601Z,19.6
2022-12-09T09:55:54.184Z,19.6
2022-12-09T10:01:00.834Z,19.6
2022-12-09T10:06:06.825Z,19.6
2022-12-09T10:11:14.896Z,19.7
2022-12-09T10:16:20.899Z,19.7
2022-12-09T10:21:26.436Z,19.7
2022-12-09T10:26:32.834Z,19.7
2022-12-09T10:31:38.951Z,19.7
2022-12-09T10:36:44.651Z,19.8
2022-12-09T10:41:50.726Z,19.8
2022-12-09T10:46:56.753Z,19.8
2022-12-09T10:52:03.073Z,19.8
2022-12-09T10:57:11.037Z,19.9
2022-12-09T11:02:19.104Z,19.9
2022-12-09T11:07:25.019Z,19.9
2022-12-09T11:12:36.712Z,19.9
2022-12-09T11:17:36.997Z,19.9
2022-12-09T11:22:43.318Z,19.9
2022-12-09T11:27:48.901Z,19.9
2022-12-09T11:32:55.564Z,19.8
2022-12-09T11:38:00.959Z,19.7
2022-12-09T11:43:07.011Z,19.7
2022-12-09T11:48:27.881Z,19.6
2022-12-09T11:53:21.007Z,19.6
2022-12-09T11:58:27.074Z,19.5
2022-12-09T12:03:33.240Z,19.5
2022-12-09T12:08:39.305Z,19.4
2022-12-09T12:13:45.236Z,19.4
2022-12-09T12:18:51.343Z,19.4
2022-12-09T12:23:57.375Z,19.4
2022-12-09T12:29:07.302Z,19.4
2022-12-09T12:34:24.287Z,19.3
2022-12-09T12:39:15.569Z,19.3
2022-12-09T12:44:21.588Z,19.3
2022-12-09T12:49:27.678Z,19.3
2022-12-09T12:54:33.734Z,19.3
2022-12-09T12:59:39.805Z,19.3
2022-12-09T13:04:45.864Z,19.3
2022-12-09T13:09:51.897Z,19.3
2022-12-09T13:14:57.949Z,19.3
2022-12-09T13:20:04.067Z,19.3
2022-12-09T13:25:10.070Z,19.3
2022-12-09T13:30:16.122Z,19.3
2022-12-09T13:35:22.231Z,19.3
2022-12-09T13:40:28.259Z,19.3
2022-12-09T13:45:34.323Z,19.3
2022-12-09T13:50:40.387Z,19.3
2022-12-09T13:55:46.430Z,19.3
2022-12-09T14:00:52.497Z,19.3
2022-12-09T14:05:58.542Z,19.3
2022-12-09T14:11:04.594Z,19.2
2022-12-09T14:16:12.546Z,19.2
2022-12-09T14:21:18.629Z,19.2
2022-12-09T14:26:24.673Z,19.2
2022-12-09T14:31:30.755Z,19.2
2022-12-09T14:36:36.820Z,19.2
2022-12-09T14:41:44.691Z,19.2
2022-12-09T14:46:54.285Z,19.2
2022-12-09T14:51:56.847Z,19.1
2022-12-09T14:57:02.891Z,19.1
2022-12-09T15:02:09.291Z,19.1
2022-12-09T15:07:15.030Z,19.1
2022-12-09T15:12:21.052Z,19
2022-12-09T15:17:28.992Z,19
2022-12-09T15:22:35.061Z,19
2022-12-09T15:27:42.995Z,19
2022-12-09T15:32:49.051Z,19
2022-12-09T15:37:55.138Z,19
2022-12-09T15:43:01.175Z,19
2022-12-09T15:48:07.249Z,19
2022-12-09T15:53:13.958Z,19
2022-12-09T15:58:19.369Z,19
2022-12-09T16:03:25.413Z,19
2022-12-09T16:08:33.419Z,19
2022-12-09T16:13:39.410Z,19
2022-12-09T16:18:45.531Z,19
2022-12-09T16:23:51.561Z,19
2022-12-09T16:28:57.588Z,19
2022-12-09T16:34:03.648Z,19
2022-12-09T16:39:09.733Z,19
2022-12-09T16:44:15.761Z,19
2022-12-09T16:49:21.831Z,19
2022-12-09T16:54:27.906Z,19
2022-12-09T16:59:37.807Z,19
2022-12-09T17:04:39.994Z,19
2022-12-09T17:09:46.062Z,19
2022-12-09T17:14:52.105Z,19
2022-12-09T17:20:00.147Z,18.9
2022-12-09T17:25:06.439Z,18.9
2022-12-09T17:30:12.162Z,18.9
2022-12-09T17:35:18.798Z,18.9
2022-12-09T17:40:24.307Z,18.8
2022-12-09T17:45:34.162Z,18.8
2022-12-09T17:50:38.270Z,18.8
2022-12-09T17:55:44.341Z,18.8
2022-12-09T18:00:50.455Z,18.8
2022-12-09T18:05:56.449Z,18.8
2022-12-09T18:11:02.531Z,18.8
2022-12-09T18:16:08.572Z,18.8
2022-12-09T18:21:16.375Z,18.8
2022-12-09T18:26:23.524Z,18.8
2022-12-09T18:31:26.759Z,18.8
2022-12-09T18:36:32.787Z,18.8
2022-12-09T18:41:38.885Z,18.8
2022-12-09T18:46:44.967Z,18.8
2022-12-09T18:51:52.854Z,18.8
2022-12-09T18:56:58.938Z,18.9
2022-12-09T19:02:06.862Z,18.8
2022-12-09T19:07:12.898Z,18.8
2022-12-09T19:12:45.296Z,18.8
2022-12-09T19:17:25.013Z,18.8
2022-12-09T19:22:31.091Z,18.8
2022-12-09T19:27:37.198Z,18.8
2022-12-09T19:32:54.568Z,18.8
2022-12-09T19:37:49.262Z,18.8
2022-12-09T19:42:55.365Z,18.8
2022-12-09T19:48:01.367Z,18.8
2022-12-09T19:53:07.440Z,18.8
2022-12-09T19:58:13.523Z,18.8
2022-12-09T20:03:21.436Z,18.8
2022-12-09T20:08:27.508Z,18.7
2022-12-09T20:13:33.610Z,18.7
2022-12-09T20:18:39.624Z,18.7
2022-12-09T20:23:45.680Z,18.7
2022-12-09T20:28:53.647Z,18.7
2022-12-09T20:33:59.861Z,18.7
2022-12-09T20:39:05.717Z,18.7
2022-12-09T20:44:11.819Z,18.7
2022-12-09T20:49:17.835Z,18.7
2022-12-09T20:54:23.979Z,18.7
2022-12-09T20:59:29.998Z,18.7
2022-12-09T21:04:36.038Z,18.7
2022-12-09T21:09:42.093Z,18.7
2022-12-09T21:14:48.174Z,18.7
2022-12-09T21:19:54.200Z,18.7
2022-12-09T21:25:00.259Z,18.7
2022-12-09T21:30:06.837Z,18.7
2022-12-09T21:35:12.376Z,18.7
2022-12-09T21:40:18.417Z,18.7
2022-12-09T21:45:24.519Z,18.7
2022-12-09T21:50:30.597Z,18.7
2022-12-09T21:55:36.623Z,18.7
2022-12-09T22:00:42.685Z,18.7
2022-12-09T22:05:51.517Z,18.6
2022-12-09T22:10:54.786Z,18.6
2022-12-09T22:16:00.924Z,18.6
2022-12-09T22:21:29.279Z,18.6
2022-12-09T22:26:12.963Z,18.6
2022-12-09T22:31:19.072Z,18.6
2022-12-09T22:36:25.104Z,18.6
2022-12-09T22:41:31.138Z,18.6
2022-12-09T22:46:37.259Z,18.6
2022-12-09T22:51:43.248Z,18.6
2022-12-09T22:56:49.304Z,18.5
2022-12-09T23:01:55.478Z,18.5
2022-12-09T23:07:01.434Z,18.5
2022-12-09T23:12:07.489Z,18.5
2022-12-09T23:17:13.584Z,18.5
2022-12-09T23:22:19.599Z,18.5
2022-12-09T23:27:25.683Z,18.5
2022-12-09T23:32:31.772Z,18.5
2022-12-09T23:37:37.781Z,18.5
2022-12-09T23:42:43.855Z,18.5
2022-12-09T23:47:51.809Z,18.5
2022-12-09T23:52:57.841Z,18.5
2022-12-09T23:58:03.894Z,18.5
